createdAt,value
2022-12-11T00:04:59.304Z,0.8
2022-12-11T00:09:59.303Z,0.8
2022-12-11T00:14:59.323Z,0.8
2022-12-11T00:19:59.326Z,0.8
2022-12-11T00:24:59.306Z,0.8
2022-12-11T00:29:59.341Z,0.8
2022-12-11T00:34:59.315Z,0.8
2022-12-11T00:39:59.327Z,0.8
2022-12-11T00:44:59.293Z,0.8
2022-12-11T00:49:59.306Z,0.8
2022-12-11T00:54:59.324Z,0.8
2022-12-11T00:59:59.334Z,0.8
2022-12-11T01:04:59.301Z,0.8
2022-12-11T01:09:59.310Z,0.8
2022-12-11T01:14:59.308Z,0.7
2022-12-11T01:19:59.324Z,0.7
2022-12-11T01:24:59.311Z,0.7
2022-12-11T01:29:59.299Z,0.7
2022-12-11T01:34:59.317Z,0.7
2022-12-11T01:39:59.369Z,0.7
2022-12-11T01:44:59.356Z,0.7
2022-12-11T01:49:59.302Z,0.7
2022-12-11T01:54:59.314Z,0.7
2022-12-11T01:59:59.310Z,0.7
2022-12-11T02:04:59.342Z,0.7
2022-12-11T02:09:59.319Z,0.7
2022-12-11T02:14:59.318Z,0.7
2022-12-11T02:19:59.312Z,0.6
2022-12-11T02:24:59.347Z,0.7
2022-12-11T02:29:59.308Z,0.7
2022-12-11T02:34:59.363Z,0.6
2022-12-11T02:39:59.305Z,0.6
2022-12-11T02:44:59.360Z,0.6
2022-12-11T02:49:59.313Z,0.6
2022-12-11T02:54:59.324Z,0.6
2022-12-11T02:59:59.314Z,0.6
2022-12-11T03:04:59.357Z,0.6
2022-12-11T03:09:59.310Z,0.6
2022-12-11T03:14:59.332Z,0.6
2022-12-11T03:19:59.323Z,0.6
2022-12-11T03:24:59.364Z,0.6
2022-12-11T03:29:59.319Z,0.6
2022-12-11T03:34:59.472Z,0.6
2022-12-11T03:39:59.329Z,0.6
2022-12-11T03:44:59.367Z,0.6
2022-12-11T03:49:59.324Z,0.6
2022-12-11T03:54:59.336Z,0.6
2022-12-11T03:59:59.347Z,0.6
2022-12-11T04:04:59.358Z,0.6
2022-12-11T04:09:59.320Z,0.6
2022-12-11T04:14:59.331Z,0.6
2022-12-11T04:19:59.335Z,0.6
2022-12-11T04:24:59.365Z,0.6
2022-12-11T04:29:59.320Z,0.6
2022-12-11T04:34:59.331Z,0.6
2022-12-11T04:39:59.376Z,0.6
2022-12-11T04:44:59.361Z,0.6
2022-12-11T04:49:59.342Z,0.6
2022-12-11T04:54:59.346Z,0.6
2022-12-11T04:59:59.343Z,0.6
2022-12-11T05:04:59.376Z,0.6
2022-12-11T05:09:59.335Z,0.6
2022-12-11T05:14:59.344Z,0.6
2022-12-11T05:19:59.329Z,0.6
2022-12-11T05:24:59.385Z,0.6
2022-12-11T05:29:59.762Z,0.6
2022-12-11T05:34:59.344Z,0.6
2022-12-11T05:39:59.388Z,0.6
2022-12-11T05:44:59.372Z,0.6
2022-12-11T05:49:59.348Z,0.6
2022-12-11T05:54:59.376Z,0.6
2022-12-11T05:59:59.338Z,0.6
2022-12-11T06:04:59.385Z,0.6
2022-12-11T06:09:59.339Z,0.6
2022-12-11T06:14:59.354Z,0.6
2022-12-11T06:19:59.354Z,0.6
2022-12-11T06:24:59.391Z,0.6
2022-12-11T06:29:59.365Z,0.6
2022-12-11T06:34:59.365Z,0.5
2022-12-11T06:39:59.351Z,0.5
2022-12-11T06:44:59.390Z,0.5
2022-12-11T06:49:59.356Z,0.5
2022-12-11T06:54:59.366Z,0.5
2022-12-11T06:59:59.371Z,0.5
2022-12-11T07:04:59.391Z,0.4
2022-12-11T07:10:04.176Z,0.4
2022-12-11T07:14:59.377Z,0.4
2022-12-11T07:19:59.431Z,0.4
2022-12-11T07:24:59.471Z,0.4
2022-12-11T07:29:59.514Z,0.4
2022-12-11T07:34:59.592Z,0.4
2022-12-11T07:39:59.589Z,0.4
2022-12-11T07:44:59.804Z,0.4
2022-12-11T07:49:59.700Z,0.4
2022-12-11T07:54:59.809Z,0.4
2022-12-11T07:59:59.852Z,0.4
2022-12-11T08:04:59.761Z,0.4
2022-12-11T08:09:59.985Z,0.4
2022-12-11T08:14:59.985Z,0.4
2022-12-11T08:19:59.831Z,0.4
2022-12-11T08:25:00.525Z,0.4
2022-12-11T08:30:00.141Z,0.4
2022-12-11T08:35:00.416Z,0.4
2022-12-11T08:40:00.040Z,0.4
2022-12-11T08:45:00.051Z,0.4
2022-12-11T08:50:00.080Z,0.4
2022-12-11T08:55:00.369Z,0.4
2022-12-11T09:00:00.193Z,0.4
2022-12-11T09:05:00.170Z,0.4
2022-12-11T09:10:00.126Z,0.4
2022-12-11T09:15:00.082Z,0.4
2022-12-11T09:20:00.085Z,0.4
2022-12-11T09:25:00.104Z,0.4
2022-12-11T09:30:00.082Z,0.4
2022-12-11T09:35:00.276Z,0.4
2022-12-11T09:40:05.681Z,0.4
2022-12-11T09:45:00.276Z,0.4
2022-12-11T09:50:00.131Z,0.4
2022-12-11T09:55:00.388Z,0.3
2022-12-11T10:00:04.678Z,0.3
2022-12-11T10:05:00.422Z,0.3
2022-12-11T10:10:00.216Z,0.3
2022-12-11T10:15:00.412Z,0.4
2022-12-11T10:20:00.235Z,0.4
2022-12-11T10:25:11.008Z,0.4
2022-12-11T10:30:00.224Z,0.4
2022-12-11T10:35:00.312Z,0.4
2022-12-11T10:40:00.437Z,0.4
2022-12-11T10:45:00.304Z,0.4
2022-12-11T10:50:00.233Z,0.4
2022-12-11T10:55:00.348Z,0.4
2022-12-11T11:00:00.229Z,0.4
2022-12-11T11:05:00.383Z,0.4
2022-12-11T11:10:00.233Z,0.4
2022-12-11T11:15:00.225Z,0.4
2022-12-11T11:20:00.229Z,0.4
2022-12-11T11:25:00.243Z,0.5
2022-12-11T11:30:00.221Z,0.5
2022-12-11T11:35:00.238Z,0.5
2022-12-11T11:40:00.547Z,0.5
2022-12-11T11:45:00.282Z,0.5
2022-12-11T11:50:00.249Z,0.5
2022-12-11T11:55:00.266Z,0.6
2022-12-11T12:00:00.333Z,0.6
2022-12-11T12:05:00.309Z,0.6
2022-12-11T12:10:00.381Z,0.6
2022-12-11T12:15:00.296Z,0.6
2022-12-11T12:20:00.253Z,0.6
2022-12-11T12:25:00.264Z,0.6
2022-12-11T12:30:00.220Z,0.7
2022-12-11T12:35:00.280Z,0.7
2022-12-11T12:40:00.333Z,0.7
2022-12-11T12:45:00.425Z,0.8
2022-12-11T12:50:00.248Z,0.8
2022-12-11T12:55:00.261Z,0.8
2022-12-11T13:00:00.257Z,0.8
2022-12-11T13:05:00.288Z,0.8
2022-12-11T13:10:00.260Z,0.8
2022-12-11T13:15:00.339Z,0.8
2022-12-11T13:20:00.261Z,0.8
2022-12-11T13:25:00.286Z,0.9
2022-12-11T13:30:00.268Z,0.9
2022-12-11T13:35:00.326Z,0.9
2022-12-11T13:40:00.256Z,0.9
2022-12-11T13:45:00.269Z,0.9
2022-12-11T13:50:00.247Z,0.9
2022-12-11T13:55:00.368Z,0.9
2022-12-11T14:00:00.242Z,0.9
2022-12-11T14:05:00.260Z,0.9
2022-12-11T14:10:00.233Z,0.9
2022-12-11T14:15:00.376Z,1
2022-12-11T14:20:00.249Z,1
2022-12-11T14:25:00.277Z,1
2022-12-11T14:30:00.241Z,1
2022-12-11T14:35:00.261Z,1
2022-12-11T14:40:00.241Z,1
2022-12-11T14:45:00.356Z,1.1
2022-12-11T14:50:00.234Z,1.1
2022-12-11T14:55:00.412Z,1.1
2022-12-11T15:00:00.237Z,1.1
2022-12-11T15:05:00.270Z,1.1
2022-12-11T15:10:00.246Z,1.1
2022-12-11T15:15:00.246Z,1.1
2022-12-11T15:20:00.234Z,1.1
2022-12-11T15:25:00.276Z,1.1
2022-12-11T15:30:00.229Z,1.1
2022-12-11T15:35:00.341Z,1.1
2022-12-11T15:40:00.233Z,1.1
2022-12-11T15:45:00.299Z,1.1
2022-12-11T15:50:00.262Z,1.1
2022-12-11T15:55:00.339Z,1.1
2022-12-11T16:00:00.362Z,1.1
2022-12-11T16:05:00.287Z,1.1
2022-12-11T16:10:00.383Z,1.1
2022-12-11T16:15:00.271Z,1.1
2022-12-11T16:20:00.260Z,1.1
2022-12-11T16:25:00.390Z,1.1
2022-12-11T16:30:00.291Z,1.1
2022-12-11T16:35:00.351Z,1.1
2022-12-11T16:40:00.409Z,1.1
2022-12-11T16:45:00.403Z,1.1
2022-12-11T16:50:00.302Z,1.1
2022-12-11T16:55:00.455Z,1.1
2022-12-11T17:00:00.365Z,1.1
2022-12-11T17:05:00.377Z,1.1
2022-12-11T17:10:00.451Z,1.1
2022-12-11T17:15:00.360Z,1.1
2022-12-11T17:20:00.360Z,1.1
2022-12-11T17:25:00.384Z,1
2022-12-11T17:30:00.364Z,1
2022-12-11T17:35:00.349Z,1
2022-12-11T17:40:00.345Z,1
2022-12-11T17:45:00.414Z,1
2022-12-11T17:50:00.337Z,1
2022-12-11T17:55:00.401Z,1
2022-12-11T18:00:00.345Z,1
2022-12-11T18:05:00.386Z,1
2022-12-11T18:10:00.496Z,1
2022-12-11T18:15:00.342Z,1
2022-12-11T18:20:00.354Z,1
2022-12-11T18:25:01.804Z,0.9
2022-12-11T18:30:00.365Z,0.9
2022-12-11T18:35:00.359Z,0.9
2022-12-11T18:40:00.353Z,0.9
2022-12-11T18:45:00.342Z,0.9
2022-12-11T18:50:05.762Z,0.9
2022-12-11T18:55:00.361Z,0.9
2022-12-11T19:00:00.330Z,0.9
2022-12-11T19:05:00.491Z,0.9
2022-12-11T19:10:00.421Z,0.9
2022-12-11T19:15:00.435Z,0.9
2022-12-11T19:20:02.566Z,0.9
2022-12-11T19:25:00.326Z,0.8
2022-12-11T19:30:00.363Z,0.8
2022-12-11T19:35:00.336Z,0.8
2022-12-11T19:40:00.315Z,0.8
2022-12-11T19:45:00.333Z,0.8
2022-12-11T19:50:06.328Z,0.8
2022-12-11T19:55:00.346Z,0.8
2022-12-11T20:00:00.334Z,0.8
2022-12-11T20:05:00.323Z,0.8
2022-12-11T20:10:00.316Z,0.8
2022-12-11T20:15:00.350Z,0.8
2022-12-11T20:20:00.322Z,0.8
2022-12-11T20:25:00.307Z,0.8
2022-12-11T20:30:00.298Z,0.8
2022-12-11T20:35:00.320Z,0.8
2022-12-11T20:40:00.342Z,0.8
2022-12-11T20:45:00.309Z,0.8
2022-12-11T20:50:00.295Z,0.8
2022-12-11T20:55:00.434Z,0.8
2022-12-11T21:00:00.336Z,0.8
2022-12-11T21:05:00.301Z,0.8
2022-12-11T21:10:00.304Z,0.8
2022-12-11T21:15:00.286Z,0.7
2022-12-11T21:20:00.316Z,0.7
2022-12-11T21:25:00.295Z,0.7
2022-12-11T21:30:00.306Z,0.7
2022-12-11T21:35:00.294Z,0.7
2022-12-11T21:40:00.334Z,0.7
2022-12-11T21:50:00.278Z,0.7
2022-12-11T21:55:00.549Z,0.7
2022-12-11T22:00:00.294Z,0.7
2022-12-11T22:05:06.075Z,0.7
2022-12-11T22:10:00.308Z,0.6
2022-12-11T22:15:00.321Z,0.6
2022-12-11T22:20:00.274Z,0.6
2022-12-11T22:25:00.323Z,0.6
2022-12-11T22:30:00.302Z,0.6
2022-12-11T22:35:00.281Z,0.6
2022-12-11T22:40:00.278Z,0.6
2022-12-11T22:45:00.285Z,0.6
2022-12-11T22:50:00.295Z,0.6
2022-12-11T22:55:00.289Z,0.6
2022-12-11T23:00:00.268Z,0.6
2022-12-11T23:05:00.272Z,0.6
2022-12-11T23:10:00.265Z,0.6
2022-12-11T23:15:00.307Z,0.6
2022-12-11T23:20:00.280Z,0.6
2022-12-11T23:25:00.323Z,0.6
2022-12-11T23:30:00.258Z,0.6
2022-12-11T23:35:00.279Z,0.6
2022-12-11T23:40:00.249Z,0.6
2022-12-11T23:45:00.261Z,0.6
2022-12-11T23:50:00.250Z,0.6
2022-12-11T23:55:00.385Z,0.6
